.
WxDataArchive / Data Records for 2014-11-02
2014-11-01 November 2014 2014-11-03

Data Records for Sunday, 02 November 2014

Time	Temp	Chill	HIndex	Humid	Dewpt	 Wind 	HiWind	WindDir	Rain 	Barom
-----	----	-----	------	-----	-----	------	------	-------	-----	-----
00:00	26.7	26.7	26.7	77	20.5	0	0	---	0.00	30.376 
00:05	26.6	26.6	26.6	77	20.4	0	0	---	0.00	30.376 
00:10	26.4	26.4	26.4	77	20.2	0	0	---	0.00	30.376 
00:15	26.3	26.3	26.3	78	20.4	0	0	---	0.00	30.374 
00:20	26.3	26.3	26.3	78	20.4	0	0	---	0.00	30.374 
00:25	26.1	26.1	26.1	79	20.5	0	0	---	0.00	30.374 
00:30	26.0	26.0	26.0	79	20.4	0	0	---	0.00	30.377 
00:35	26.0	26.0	26.0	79	20.4	0	0	---	0.00	30.377 
00:40	25.8	25.8	25.8	80	20.5	0	0	---	0.00	30.377 
00:45	25.8	25.8	25.8	80	20.5	0	0	---	0.00	30.379 
00:50	25.8	25.8	25.8	80	20.5	0	0	---	0.00	30.379 
00:55	25.8	25.8	25.8	80	20.5	0	0	---	0.00	30.379 
01:00	25.8	25.8	25.8	80	20.5	0	0	---	0.00	30.384 
01:05	25.7	25.7	25.7	80	20.4	0	1	292	0.00	30.384 
01:10	25.6	25.6	25.6	80	20.3	0	1	292	0.00	30.384 
01:15	25.4	25.4	25.4	81	20.4	0	1	292	0.00	30.382 
01:20	25.4	25.4	25.4	80	20.1	0	0	---	0.00	30.382 
01:25	25.3	25.3	25.3	80	20.0	0	0	---	0.00	30.382 
01:30	25.1	25.1	25.1	80	19.8	0	0	---	0.00	30.383 
01:35	25.0	25.0	25.0	81	20.0	0	0	---	0.00	30.383 
01:40	25.0	25.0	25.0	81	20.0	0	0	---	0.00	30.383 
01:45	24.8	24.8	24.8	81	19.8	0	0	---	0.00	30.386 
01:50	24.7	24.7	24.7	81	19.7	0	0	---	0.00	30.386 
01:55	24.7	24.7	24.7	81	19.7	0	0	---	0.00	30.386 
02:00	24.5	24.5	24.5	81	19.5	0	0	---	0.00	30.388 
02:05	23.5	23.5	23.5	84	19.4	0	0	---	0.00	30.389 
02:10	23.5	23.5	23.5	84	19.4	0	0	---	0.00	30.389 
02:15	23.3	23.3	23.3	84	19.2	0	0	---	0.00	30.387 
02:20	23.3	23.3	23.3	84	19.2	0	0	---	0.00	30.387 
02:25	23.3	23.3	23.3	85	19.5	0	0	---	0.00	30.387 
02:30	23.3	23.3	23.3	85	19.5	0	0	---	0.00	30.390 
02:35	23.3	23.3	23.3	85	19.5	0	0	---	0.00	30.390 
02:40	23.3	23.3	23.3	85	19.5	0	0	---	0.00	30.390 
02:45	23.3	23.3	23.3	85	19.5	0	0	---	0.00	30.401 
02:50	23.3	23.3	23.3	85	19.5	0	0	---	0.00	30.401 
02:55	23.3	23.3	23.3	85	19.5	0	0	---	0.00	30.401 
03:00	23.3	23.3	23.3	85	19.5	0	0	---	0.00	30.401 
03:05	23.3	23.3	23.3	85	19.5	0	0	---	0.00	30.401 
03:10	23.2	23.2	23.2	85	19.4	0	0	---	0.00	30.401 
03:15	23.0	23.0	23.0	85	19.2	0	0	---	0.00	30.401 
03:20	22.9	22.9	22.9	85	19.1	0	0	---	0.00	30.401 
03:25	22.7	22.7	22.7	85	18.9	0	0	---	0.00	30.401 
03:30	22.7	22.7	22.7	85	18.9	0	0	---	0.00	30.402 
03:35	22.7	22.7	22.7	85	18.9	0	0	---	0.00	30.402 
03:40	22.7	22.7	22.7	85	18.9	0	0	---	0.00	30.402 
03:45	22.5	22.5	22.5	85	18.7	0	0	---	0.00	30.404 
03:50	22.4	22.4	22.4	85	18.6	0	0	---	0.00	30.404 
03:55	22.4	22.4	22.4	85	18.6	0	0	---	0.00	30.404 
04:00	22.2	22.2	22.2	85	18.4	0	0	---	0.00	30.404 
04:05	22.2	22.2	22.2	85	18.4	0	0	---	0.00	30.404 
04:10	22.1	22.1	22.1	85	18.3	0	0	---	0.00	30.404 
04:15	22.1	22.1	22.1	85	18.3	0	0	---	0.00	30.412 
04:20	21.9	21.9	21.9	85	18.1	0	0	---	0.00	30.412 
04:25	21.8	21.8	21.8	85	18.0	0	0	---	0.00	30.412 
04:30	21.8	21.8	21.8	86	18.3	0	0	---	0.00	30.418 
04:35	21.8	21.8	21.8	86	18.3	0	0	---	0.00	30.418 
04:40	21.8	21.8	21.8	86	18.3	0	0	---	0.00	30.418 
04:45	21.8	21.8	21.8	86	18.3	0	0	---	0.00	30.421 
04:50	21.8	21.8	21.8	86	18.3	0	0	---	0.00	30.421 
04:55	21.8	21.8	21.8	87	18.5	0	0	---	0.00	30.421 
05:00	21.8	21.8	21.8	87	18.5	0	0	---	0.00	30.423 
05:05	21.8	21.8	21.8	87	18.5	0	0	---	0.00	30.423 
05:10	21.8	21.8	21.8	87	18.5	0	0	---	0.00	30.423 
05:15	21.9	21.9	21.9	87	18.6	0	0	---	0.00	30.434 
05:20	21.9	21.9	21.9	87	18.6	0	0	---	0.00	30.434 
05:25	21.9	21.9	21.9	87	18.6	0	0	---	0.00	30.434 
05:30	21.9	21.9	21.9	87	18.6	0	0	---	0.00	30.438 
05:35	21.8	21.8	21.8	87	18.5	0	0	---	0.00	30.438 
05:40	21.6	21.6	21.6	86	18.1	0	0	---	0.00	30.438 
05:45	21.4	21.4	21.4	86	17.9	0	0	---	0.00	30.443 
05:50	21.4	21.4	21.4	87	18.1	0	0	---	0.00	30.443 
05:55	21.3	21.3	21.3	87	18.0	0	0	---	0.00	30.443 
06:00	21.3	21.3	21.3	86	17.8	0	0	---	0.00	30.446 
06:05	21.1	21.1	21.1	87	17.8	0	0	---	0.00	30.446 
06:10	21.1	21.1	21.1	87	17.8	0	0	---	0.00	30.446 
06:15	21.0	21.0	21.0	87	17.8	0	0	---	0.00	30.444 
06:20	21.0	21.0	21.0	87	17.8	0	0	---	0.00	30.444 
06:25	20.8	20.8	20.8	87	17.6	0	0	---	0.00	30.444 
06:30	20.8	20.8	20.8	87	17.6	0	0	---	0.00	30.447 
06:35	20.6	20.6	20.6	87	17.4	0	0	---	0.00	30.447 
06:40	20.6	20.6	20.6	87	17.4	0	0	---	0.00	30.447 
06:45	20.5	20.5	20.5	87	17.3	0	0	---	0.00	30.453 
06:50	20.5	20.5	20.5	87	17.3	0	0	---	0.00	30.453 
06:55	20.3	20.3	20.3	87	17.1	0	0	---	0.00	30.453 
07:00	20.3	20.3	20.3	87	17.1	0	0	---	0.00	30.460 
07:05	20.3	20.3	20.3	87	17.1	0	0	---	0.00	30.460 
07:10	20.2	20.2	20.2	87	17.0	0	0	---	0.00	30.460 
07:15	20.2	20.2	20.2	88	17.2	0	0	---	0.00	30.461 
07:20	20.3	20.3	20.3	88	17.3	0	0	---	0.00	30.461 
07:25	20.3	20.3	20.3	88	17.3	0	0	---	0.00	30.461 
07:30	20.3	20.3	20.3	88	17.3	0	0	---	0.00	30.463 
07:35	20.3	20.3	20.3	88	17.3	0	0	---	0.00	30.463 
07:40	20.3	20.3	20.3	88	17.3	0	0	---	0.00	30.463 
07:45	20.5	20.5	20.5	88	17.5	0	0	---	0.00	30.464 
07:50	20.6	20.6	20.6	88	17.6	0	0	---	0.00	30.464 
07:55	21.0	21.0	21.0	89	18.3	0	0	---	0.00	30.464 
08:00	21.4	21.4	21.4	89	18.7	0	0	---	0.00	30.467 
08:05	21.9	21.9	21.9	89	19.2	0	0	---	0.00	30.467 
08:10	22.4	22.4	22.4	89	19.7	0	0	---	0.00	30.467 
08:15	23.0	23.0	23.0	89	20.3	0	0	---	0.00	30.470 
08:20	23.6	23.6	23.6	89	20.8	0	0	---	0.00	30.470 
08:25	24.2	24.2	24.2	89	21.4	0	0	---	0.00	30.470 
08:30	24.8	24.8	24.8	89	22.0	0	0	---	0.00	30.473 
08:35	25.3	25.3	25.3	89	22.5	0	1	292	0.00	30.473 
08:40	26.0	26.0	26.0	89	23.2	0	0	---	0.00	30.473 
08:45	26.7	26.7	26.7	89	23.9	0	0	---	0.00	30.470 
08:50	27.3	27.3	27.3	87	24.0	0	0	---	0.00	30.470 
08:55	27.9	27.9	27.9	87	24.5	0	0	---	0.00	30.470 
09:00	28.8	28.8	28.8	86	25.2	0	0	---	0.00	30.470 
09:05	29.7	29.7	29.7	84	25.5	0	0	---	0.00	30.470 
09:10	30.3	30.3	30.3	82	25.5	0	0	---	0.00	30.470 
09:15	31.0	31.0	31.0	81	25.9	0	1	292	0.00	30.471 
09:20	31.8	31.8	31.8	78	25.7	0	1	292	0.00	30.471 
09:25	32.4	32.4	32.4	76	25.7	0	1	292	0.00	30.471 
09:30	33.2	33.2	33.2	74	25.8	0	0	---	0.00	30.468 
09:35	33.8	33.8	33.8	72	25.7	0	1	292	0.00	30.468 
09:40	34.6	34.6	34.6	69	25.5	0	1	292	0.00	30.468 
09:45	35.3	35.3	35.3	67	25.5	0	2	292	0.00	30.467 
09:50	36.0	36.0	36.0	62	24.3	0	2	292	0.00	30.467 
09:55	36.6	36.6	36.6	59	23.6	0	1	292	0.00	30.467 
10:00	37.0	37.0	37.0	55	22.4	0	1	292	0.00	30.464 
10:05	37.5	37.5	37.5	55	22.8	0	2	292	0.00	30.464 
10:10	37.9	37.9	37.9	54	22.8	0	1	292	0.00	30.464 
10:15	38.3	38.3	38.3	54	23.1	0	2	292	0.00	30.464 
10:20	38.8	38.8	38.8	53	23.2	0	1	292	0.00	30.464 
10:25	39.2	39.2	39.2	52	23.1	0	1	292	0.00	30.464 
10:30	39.3	39.3	39.3	48	21.3	0	2	292	0.00	30.463 
10:35	39.6	39.6	39.6	46	20.5	0	2	292	0.00	30.463 
10:40	39.8	39.8	39.8	47	21.2	1	2	292	0.00	30.463 
10:45	40.1	40.1	40.1	47	21.5	0	2	292	0.00	30.463 
10:50	40.5	40.5	40.5	47	21.9	0	2	292	0.00	30.463 
10:55	40.8	40.8	40.8	46	21.6	1	2	292	0.00	30.463 
11:00	40.5	40.5	40.5	44	20.3	1	3	292	0.00	30.460 
11:05	40.8	40.8	40.8	46	21.6	1	3	292	0.00	30.460 
11:10	41.1	41.1	41.1	44	20.9	1	3	292	0.00	30.460 
11:15	41.3	41.3	41.3	46	22.1	0	2	292	0.00	30.458 
11:20	41.5	41.5	41.5	45	21.8	1	3	292	0.00	30.458 
11:25	41.5	41.5	41.5	46	22.3	0	2	292	0.00	30.458 
11:30	41.5	41.5	41.5	46	22.3	0	2	292	0.00	30.447 
11:35	41.8	41.8	41.8	46	22.6	0	2	292	0.00	30.447 
11:40	41.9	41.9	41.9	48	23.7	0	1	292	0.00	30.447 
11:45	42.2	42.2	42.2	47	23.4	0	1	292	0.00	30.444 
11:50	42.3	42.3	42.3	45	22.5	0	2	292	0.00	30.444 
11:55	42.5	42.5	42.5	46	23.2	0	2	292	0.00	30.444 
12:00	42.8	42.8	42.8	45	22.9	0	1	292	0.00	30.431 
12:05	43.1	43.1	43.1	45	23.2	0	1	292	0.00	30.431 
12:10	43.3	43.3	43.3	43	22.3	0	1	292	0.00	30.431 
12:15	43.6	43.6	43.6	45	23.7	0	3	292	0.00	30.423 
12:20	43.8	43.8	43.8	43	22.8	0	2	292	0.00	30.423 
12:25	43.8	43.8	43.8	43	22.8	1	2	292	0.00	30.423 
12:30	43.9	43.9	43.9	42	22.3	0	2	315	0.00	30.412 
12:35	44.1	44.1	44.1	43	23.0	0	1	315	0.00	30.412 
12:40	44.3	44.3	44.3	42	22.7	0	2	315	0.00	30.412 
12:45	44.8	44.8	44.8	40	22.0	0	2	315	0.00	30.398 
12:50	45.1	45.1	45.1	41	22.8	0	1	315	0.00	30.398 
12:55	45.4	45.4	45.4	41	23.1	0	1	315	0.00	30.398 
13:00	45.5	45.5	45.5	39	22.0	0	2	315	0.00	30.392 
13:05	45.8	45.8	45.8	38	21.7	0	1	315	0.00	30.392 
13:10	46.1	46.1	46.1	39	22.5	0	2	315	0.00	30.392 
13:15	46.4	46.4	46.4	37	21.6	1	2	315	0.00	30.384 
13:20	46.5	46.5	46.5	36	21.0	0	4	315	0.00	30.384 
13:25	46.7	46.7	46.7	38	22.5	0	1	68	0.00	30.384 
13:30	47.0	47.0	47.0	35	20.8	0	2	68	0.00	30.380 
13:35	47.1	47.1	47.1	34	20.2	0	2	68	0.00	30.380 
13:40	47.3	47.3	47.3	37	22.4	0	2	68	0.00	30.380 
13:45	47.3	47.3	47.3	35	21.0	0	2	68	0.00	30.369 
13:50	47.4	47.4	47.4	33	19.8	0	3	68	0.00	30.369 
13:55	47.7	47.7	47.7	35	21.4	0	2	68	0.00	30.369 
14:00	48.0	48.0	48.0	33	20.3	0	2	68	0.00	30.363 
14:05	47.9	47.9	47.9	31	18.7	1	3	68	0.00	30.363 
14:10	48.0	48.0	48.0	34	21.0	0	3	68	0.00	30.363 
14:15	48.0	48.0	48.0	33	20.3	0	3	68	0.00	30.362 
14:20	48.0	48.0	48.0	35	21.7	0	3	68	0.00	30.362 
14:25	48.2	48.2	48.2	32	19.7	1	5	68	0.00	30.362 
14:30	48.2	48.2	48.2	32	19.7	1	5	90	0.00	30.359 
14:35	48.5	48.5	48.5	32	20.0	0	1	90	0.00	30.359 
14:40	48.6	48.6	48.6	30	18.6	1	3	90	0.00	30.359 
14:45	48.8	48.8	48.8	32	20.3	0	2	90	0.00	30.355 
14:50	48.9	48.9	48.9	33	21.1	0	1	90	0.00	30.355 
14:55	49.1	49.1	49.1	32	20.5	0	1	90	0.00	30.355 
15:00	49.2	49.2	49.2	31	19.9	0	3	90	0.00	30.349 
15:05	49.5	49.5	49.5	30	19.4	0	2	90	0.00	30.349 
15:10	49.6	49.6	49.6	29	18.7	0	3	90	0.00	30.349 
15:15	49.6	49.6	49.6	29	18.7	0	2	90	0.00	30.348 
15:20	49.6	49.6	49.6	31	20.2	0	1	90	0.00	30.348 
15:25	49.5	49.5	49.5	27	16.9	1	3	90	0.00	30.348 
15:30	49.5	49.5	49.5	28	17.8	0	1	90	0.00	30.351 
15:35	49.4	49.4	49.4	27	16.8	0	2	90	0.00	30.351 
15:40	49.4	49.4	49.4	29	18.5	0	2	90	0.00	30.351 
15:45	49.4	49.4	49.4	28	17.7	0	2	90	0.00	30.350 
15:50	49.4	49.4	49.4	27	16.8	0	2	90	0.00	30.350 
15:55	49.4	49.4	49.4	28	17.7	0	1	90	0.00	30.350 
16:00	49.4	49.4	49.4	28	17.7	0	1	90	0.00	30.350 
16:05	49.4	49.4	49.4	28	17.7	0	1	90	0.00	30.350 
16:10	49.4	49.4	49.4	28	17.7	0	1	90	0.00	30.350 
16:15	49.4	49.4	49.4	28	17.7	0	2	90	0.00	30.350 
16:20	49.4	49.4	49.4	28	17.7	0	1	90	0.00	30.350 
16:25	49.5	49.5	49.5	27	16.9	0	2	90	0.00	30.350 
16:30	49.4	49.4	49.4	28	17.7	0	1	90	0.00	30.349 
16:35	49.2	49.2	49.2	27	16.7	0	1	90	0.00	30.349 
16:40	49.2	49.2	49.2	29	18.3	0	1	90	0.00	30.349 
16:45	49.1	49.1	49.1	28	17.4	0	0	---	0.00	30.350 
16:50	48.8	48.8	48.8	27	16.3	0	2	90	0.00	30.350 
16:55	48.6	48.6	48.6	27	16.2	0	2	90	0.00	30.350 
17:00	48.5	48.5	48.5	28	16.9	0	2	90	0.00	30.350 
17:05	48.2	48.2	48.2	28	16.6	0	1	90	0.00	30.350 
17:10	48.0	48.0	48.0	28	16.5	0	1	90	0.00	30.350 
17:15	47.6	47.6	47.6	30	17.7	0	0	---	0.00	30.350 
17:20	47.3	47.3	47.3	31	18.2	0	0	---	0.00	30.350 
17:25	46.8	46.8	46.8	31	17.8	0	0	---	0.00	30.350 
17:30	46.2	46.2	46.2	32	18.0	0	0	---	0.00	30.349 
17:35	45.7	45.7	45.7	35	19.6	0	0	---	0.00	30.349 
17:40	45.2	45.2	45.2	34	18.5	0	0	---	0.00	30.349 
17:45	44.6	44.6	44.6	35	18.7	0	0	---	0.00	30.343 
17:50	44.2	44.2	44.2	35	18.3	0	0	---	0.00	30.343 
17:55	43.8	43.8	43.8	36	18.6	0	0	---	0.00	30.343 
18:00	43.3	43.3	43.3	36	18.2	0	0	---	0.00	30.340 
18:05	42.9	42.9	42.9	38	19.1	0	0	---	0.00	30.340 
18:10	42.6	42.6	42.6	38	18.8	0	0	---	0.00	30.340 
18:15	42.2	42.2	42.2	39	19.0	0	0	---	0.00	30.342 
18:20	41.9	41.9	41.9	40	19.4	0	0	---	0.00	30.342 
18:25	41.5	41.5	41.5	41	19.6	0	0	---	0.00	30.342 
18:30	41.1	41.1	41.1	43	20.3	0	0	---	0.00	30.342 
18:35	40.6	40.6	40.6	43	19.9	0	0	---	0.00	30.342 
18:40	40.3	40.3	40.3	44	20.1	0	0	---	0.00	30.342 
18:45	39.9	39.9	39.9	47	21.3	0	0	---	0.00	30.342 
18:50	39.5	39.5	39.5	48	21.5	0	0	---	0.00	30.342 
18:55	39.2	39.2	39.2	48	21.2	0	0	---	0.00	30.342 
19:00	38.9	38.9	38.9	49	21.4	0	0	---	0.00	30.345 
19:05	38.6	38.6	38.6	49	21.1	0	0	---	0.00	30.345 
19:10	38.2	38.2	38.2	50	21.2	0	0	---	0.00	30.345 
19:15	37.9	37.9	37.9	49	20.5	0	0	---	0.00	30.344 
19:20	37.8	37.8	37.8	50	20.8	0	0	---	0.00	30.344 
19:25	37.8	37.8	37.8	51	21.3	0	0	---	0.00	30.344 
19:30	37.5	37.5	37.5	53	21.9	0	0	---	0.00	30.342 
19:35	37.3	37.3	37.3	53	21.8	0	0	---	0.00	30.342 
19:40	37.2	37.2	37.2	53	21.7	0	0	---	0.00	30.342 
19:45	36.9	36.9	36.9	54	21.8	0	0	---	0.00	30.342 
19:50	36.8	36.8	36.8	55	22.2	0	0	---	0.00	30.342 
19:55	36.5	36.5	36.5	56	22.3	0	0	---	0.00	30.342 
20:00	36.3	36.3	36.3	56	22.1	0	0	---	0.00	30.344 
20:05	36.0	36.0	36.0	57	22.3	0	0	---	0.00	30.344 
20:10	35.9	35.9	35.9	58	22.6	0	0	---	0.00	30.344 
20:15	35.8	35.8	35.8	57	22.1	0	0	---	0.00	30.329 
20:20	35.8	35.8	35.8	58	22.5	0	0	---	0.00	30.329 
20:25	35.6	35.6	35.6	57	21.9	0	0	---	0.00	30.329 
20:30	35.6	35.6	35.6	58	22.3	0	0	---	0.00	30.330 
20:35	35.5	35.5	35.5	58	22.2	0	0	---	0.00	30.330 
20:40	35.3	35.3	35.3	60	22.8	0	0	---	0.00	30.330 
20:45	35.2	35.2	35.2	60	22.7	0	0	---	0.00	30.330 
20:50	35.0	35.0	35.0	61	22.9	0	0	---	0.00	30.330 
20:55	34.9	34.9	34.9	61	22.8	0	0	---	0.00	30.330 
21:00	34.7	34.7	34.7	61	22.6	0	0	---	0.00	30.325 
21:05	34.6	34.6	34.6	62	22.9	0	0	---	0.00	30.325 
21:10	34.4	34.4	34.4	61	22.4	0	0	---	0.00	30.325 
21:15	34.4	34.4	34.4	58	21.2	0	0	---	0.00	30.318 
21:20	34.6	34.6	34.6	56	20.5	0	0	---	0.00	30.318 
21:25	34.9	34.9	34.9	55	20.4	0	0	---	0.00	30.318 
21:30	35.0	35.0	35.0	55	20.5	0	0	---	0.00	30.315 
21:35	35.3	35.3	35.3	54	20.3	0	0	---	0.00	30.315 
21:40	35.5	35.5	35.5	54	20.5	0	0	---	0.00	30.315 
21:45	35.5	35.5	35.5	54	20.5	0	0	---	0.00	30.316 
21:50	35.5	35.5	35.5	55	21.0	0	0	---	0.00	30.316 
21:55	35.5	35.5	35.5	54	20.5	0	0	---	0.00	30.316 
22:00	35.6	35.6	35.6	53	20.2	0	0	---	0.00	30.314 
22:05	35.8	35.8	35.8	52	19.9	0	0	---	0.00	30.314 
22:10	35.9	35.9	35.9	53	20.5	0	0	---	0.00	30.314 
22:15	35.9	35.9	35.9	53	20.5	0	0	---	0.00	30.306 
22:20	35.8	35.8	35.8	53	20.4	0	0	---	0.00	30.306 
22:25	35.8	35.8	35.8	54	20.8	0	0	---	0.00	30.306 
22:30	35.8	35.8	35.8	54	20.8	0	0	---	0.00	30.303 
22:35	35.9	35.9	35.9	54	20.9	0	1	90	0.00	30.303 
22:40	36.0	36.0	36.0	54	21.0	0	0	---	0.00	30.303 
22:45	36.2	36.2	36.2	53	20.7	0	1	90	0.00	30.299 
22:50	36.6	36.6	36.6	53	21.1	0	1	90	0.00	30.299 
22:55	36.8	36.8	36.8	53	21.3	0	1	90	0.00	30.299 

CoCoRaHS
IN-AL-39
A2 Web Hosting
Creative Commons License
GoDaddy
search engine by freefind advanced

loaded 2018-12-19 10:24:42 • last modified 2010-11-18 10:43:29
Privacy PolicyDisclaimer
• wx.awcolley.com is powered by PmWiki v.2002016 •
• all content (unless otherwise noted) © 2018 A W Colley